Time;durP1;ratioP1;P1;durP2;ratioP2;P2;SDS_P1;SDS_P2;PMS_P1;PMS_P2;Temp;Humidity;BMP_temperature;BMP_pressure;BME280_temperature;BME280_humidity;BME280_pressure;Samples;Min_cycle;Max_cycle;Signal;HPM_P1;HPM_P2
2022/03/30 00:01:08;;;;;;;;;;;21.50;30.30;;;;;;484244;246;1136;-39
2022/03/30 00:03:10;;;;;;;;;;;21.50;30.30;;;;;;484478;246;2124;-39
2022/03/30 00:05:11;;;;;;;;;;;21.60;30.20;;;;;;484717;246;1046;-39
2022/03/30 00:07:13;;;;;;;;;;;21.60;30.20;;;;;;484328;246;1379;-39
2022/03/30 00:09:14;;;;;;;;;;;21.60;30.20;;;;;;484738;246;1061;-39
2022/03/30 00:11:15;;;;;;;;;;;21.60;30.20;;;;;;484296;241;1281;-39
2022/03/30 00:13:17;;;;;;;;;;;21.60;30.20;;;;;;484732;246;1221;-39
2022/03/30 00:15:18;;;;;;;;;;;21.60;30.20;;;;;;484470;246;1996;-39
2022/03/30 00:17:19;;;;;;;;;;;21.60;30.20;;;;;;484699;246;1094;-39
2022/03/30 00:19:20;;;;;;;;;;;21.60;30.20;;;;;;484714;246;1048;-39
2022/03/30 00:21:22;;;;;;;;;;;21.60;30.20;;;;;;484583;246;1453;-39
2022/03/30 00:23:23;;;;;;;;;;;21.60;30.20;;;;;;484727;246;2183;-39
2022/03/30 00:25:24;;;;;;;;;;;21.50;30.30;;;;;;484607;246;1151;-39
2022/03/30 00:27:26;;;;;;;;;;;21.60;30.30;;;;;;484258;246;1237;-39
2022/03/30 00:29:27;;;;;;;;;;;21.50;30.30;;;;;;484644;246;1040;-39
2022/03/30 00:31:28;;;;;;;;;;;21.60;30.30;;;;;;484244;246;1378;-39
2022/03/30 00:33:30;;;;;;;;;;;21.60;30.20;;;;;;484289;246;1075;-39
2022/03/30 00:35:31;;;;;;;;;;;21.60;30.20;;;;;;484501;246;1051;-39
2022/03/30 00:37:32;;;;;;;;;;;21.60;30.20;;;;;;484728;246;1273;-39
2022/03/30 00:39:34;;;;;;;;;;;21.60;30.20;;;;;;484574;246;965;-39
2022/03/30 00:41:35;;;;;;;;;;;21.60;30.30;;;;;;484363;246;1310;-39
2022/03/30 00:43:36;;;;;;;;;;;21.60;30.30;;;;;;484685;246;2133;-39
2022/03/30 00:45:38;;;;;;;;;;;21.60;30.40;;;;;;484711;246;1041;-39
2022/03/30 00:47:39;;;;;;;;;;;21.60;30.30;;;;;;484298;246;1140;-39
2022/03/30 00:49:40;;;;;;;;;;;21.60;30.40;;;;;;484288;246;1067;-39
2022/03/30 00:51:42;;;;;;;;;;;21.60;30.30;;;;;;484245;246;1113;-39
2022/03/30 00:53:43;;;;;;;;;;;21.60;30.30;;;;;;484783;246;1084;-39
2022/03/30 00:55:44;;;;;;;;;;;21.50;30.30;;;;;;484615;246;1101;-39
2022/03/30 00:57:46;;;;;;;;;;;21.60;30.40;;;;;;484651;246;1149;-39
2022/03/30 00:59:47;;;;;;;;;;;21.60;30.30;;;;;;484717;246;1285;-39
2022/03/30 01:01:49;;;;;;;;;;;21.60;30.30;;;;;;484444;246;1230;-39
2022/03/30 01:03:50;;;;;;;;;;;21.60;30.30;;;;;;484290;246;2232;-39
2022/03/30 01:05:51;;;;;;;;;;;21.60;30.20;;;;;;484762;246;1066;-39
2022/03/30 01:07:53;;;;;;;;;;;21.60;30.30;;;;;;484335;246;1290;-39
2022/03/30 01:09:54;;;;;;;;;;;21.60;30.30;;;;;;484346;246;1208;-39
2022/03/30 01:11:55;;;;;;;;;;;21.50;30.30;;;;;;484203;246;1311;-39
2022/03/30 01:13:57;;;;;;;;;;;21.50;30.40;;;;;;484328;246;1229;-39
2022/03/30 01:15:59;;;;;;;;;;;21.60;30.30;;;;;;484717;246;1167;-39
2022/03/30 01:18:00;;;;;;;;;;;21.60;30.40;;;;;;484303;246;1111;-39
2022/03/30 01:20:01;;;;;;;;;;;21.60;30.40;;;;;;484544;246;1061;-39
2022/03/30 01:22:03;;;;;;;;;;;21.60;30.40;;;;;;484629;246;2563;-39
2022/03/30 01:24:04;;;;;;;;;;;21.50;30.40;;;;;;484760;246;2179;-39
2022/03/30 01:26:05;;;;;;;;;;;21.60;30.40;;;;;;484545;246;1266;-39
2022/03/30 01:28:07;;;;;;;;;;;21.60;30.40;;;;;;484741;246;1137;-39
2022/03/30 01:32:29;;;;;;;;;;;21.60;30.40;;;;;;484629;246;1225;-39
2022/03/30 01:34:30;;;;;;;;;;;21.60;30.50;;;;;;484239;246;1114;-39
2022/03/30 01:36:31;;;;;;;;;;;21.60;30.50;;;;;;484251;246;1052;-39
2022/03/30 01:38:33;;;;;;;;;;;21.60;30.40;;;;;;484732;246;1220;-39
2022/03/30 01:40:34;;;;;;;;;;;21.60;30.40;;;;;;484739;246;1094;-39
2022/03/30 01:42:35;;;;;;;;;;;21.60;30.40;;;;;;484258;246;1179;-39
2022/03/30 01:44:37;;;;;;;;;;;21.60;30.40;;;;;;484753;246;2121;-39
2022/03/30 01:46:38;;;;;;;;;;;21.60;30.40;;;;;;484622;246;1137;-39
2022/03/30 01:48:40;;;;;;;;;;;21.60;30.40;;;;;;484290;246;1249;-39
2022/03/30 01:50:41;;;;;;;;;;;21.60;30.40;;;;;;484239;246;1814;-39
2022/03/30 01:52:42;;;;;;;;;;;21.60;30.40;;;;;;484668;246;1077;-39
2022/03/30 01:54:43;;;;;;;;;;;21.50;30.40;;;;;;484288;246;997;-39
2022/03/30 01:56:45;;;;;;;;;;;21.60;30.50;;;;;;484229;246;1193;-39
2022/03/30 01:58:46;;;;;;;;;;;21.50;30.50;;;;;;484745;246;1295;-39
2022/03/30 02:00:47;;;;;;;;;;;21.50;30.50;;;;;;484724;246;1254;-39
2022/03/30 02:02:49;;;;;;;;;;;21.50;30.50;;;;;;484438;246;1220;-39
2022/03/30 02:04:50;;;;;;;;;;;21.60;30.50;;;;;;484331;246;2188;-39
2022/03/30 02:06:51;;;;;;;;;;;21.60;30.50;;;;;;484191;246;1175;-39
2022/03/30 02:08:53;;;;;;;;;;;21.60;30.40;;;;;;484545;246;1135;-39
2022/03/30 02:10:54;;;;;;;;;;;21.60;30.50;;;;;;484295;246;1186;-39
2022/03/30 02:12:55;;;;;;;;;;;21.60;30.50;;;;;;484264;246;1187;-39
2022/03/30 02:14:57;;;;;;;;;;;21.60;30.50;;;;;;484311;246;1068;-39
2022/03/30 02:16:58;;;;;;;;;;;21.50;30.50;;;;;;484600;246;1329;-39
2022/03/30 02:18:59;;;;;;;;;;;21.50;30.60;;;;;;484722;246;1056;-39
2022/03/30 02:21:01;;;;;;;;;;;21.50;30.60;;;;;;484670;241;1201;-39
2022/03/30 02:23:02;;;;;;;;;;;21.50;30.60;;;;;;484231;246;1233;-39
2022/03/30 02:25:03;;;;;;;;;;;21.50;30.60;;;;;;484739;246;2123;-39
2022/03/30 02:27:05;;;;;;;;;;;21.60;30.60;;;;;;484442;246;1311;-39
2022/03/30 02:29:06;;;;;;;;;;;21.60;30.60;;;;;;484580;246;1084;-39
2022/03/30 02:31:07;;;;;;;;;;;21.60;30.60;;;;;;484462;246;1092;-39
2022/03/30 02:33:08;;;;;;;;;;;21.50;30.60;;;;;;484300;246;1208;-39
2022/03/30 02:35:10;;;;;;;;;;;21.50;30.60;;;;;;484733;246;1045;-39
2022/03/30 02:37:11;;;;;;;;;;;21.50;30.70;;;;;;484670;246;1140;-39
2022/03/30 02:39:14;;;;;;;;;;;21.50;30.70;;;;;;484467;246;1075;-39
2022/03/30 02:41:14;;;;;;;;;;;21.50;30.70;;;;;;484590;246;2095;-39
2022/03/30 02:43:17;;;;;;;;;;;21.50;30.60;;;;;;484254;246;1146;-39
2022/03/30 02:45:17;;;;;;;;;;;21.60;30.60;;;;;;484248;246;2669;-39
2022/03/30 02:48:17;;;;;;;;;;;21.50;30.60;;;;;;484654;246;1362;-39
2022/03/30 02:49:20;;;;;;;;;;;21.50;30.70;;;;;;483112;246;1541;-39
2022/03/30 02:51:21;;;;;;;;;;;21.50;30.60;;;;;;484226;246;1296;-39
2022/03/30 02:53:23;;;;;;;;;;;21.50;30.60;;;;;;484303;246;1030;-39
2022/03/30 02:55:24;;;;;;;;;;;21.60;30.70;;;;;;484736;246;1344;-39
2022/03/30 02:57:25;;;;;;;;;;;21.60;30.60;;;;;;484489;246;1355;-39
2022/03/30 02:59:27;;;;;;;;;;;21.60;30.70;;;;;;484539;246;1082;-39
2022/03/30 03:01:28;;;;;;;;;;;21.60;30.70;;;;;;484644;246;1334;-39
2022/03/30 03:03:29;;;;;;;;;;;21.60;30.60;;;;;;484701;246;2139;-39
2022/03/30 03:05:32;;;;;;;;;;;21.60;30.70;;;;;;484271;246;1357;-39
2022/03/30 03:07:33;;;;;;;;;;;21.60;30.70;;;;;;484674;246;1303;-39
2022/03/30 03:09:35;;;;;;;;;;;21.60;30.70;;;;;;484569;246;1065;-39
2022/03/30 03:11:36;;;;;;;;;;;21.60;30.70;;;;;;484672;246;1328;-39
2022/03/30 03:13:37;;;;;;;;;;;21.60;30.70;;;;;;484307;246;1213;-39
2022/03/30 03:15:39;;;;;;;;;;;21.60;30.70;;;;;;484724;246;1095;-39
2022/03/30 03:17:40;;;;;;;;;;;21.60;30.70;;;;;;484247;246;1252;-39
2022/03/30 03:19:42;;;;;;;;;;;21.60;30.70;;;;;;484727;246;1034;-39
2022/03/30 03:21:43;;;;;;;;;;;21.60;30.70;;;;;;484516;245;1369;-39
2022/03/30 03:23:44;;;;;;;;;;;21.60;30.70;;;;;;484697;246;2192;-39
2022/03/30 03:25:46;;;;;;;;;;;21.60;30.70;;;;;;484713;246;999;-39
2022/03/30 03:27:47;;;;;;;;;;;21.60;30.70;;;;;;484468;246;1236;-39
2022/03/30 03:29:48;;;;;;;;;;;21.60;30.70;;;;;;484711;246;1049;-39
2022/03/30 03:31:50;;;;;;;;;;;21.60;30.70;;;;;;484558;246;1226;-39
2022/03/30 03:33:51;;;;;;;;;;;21.60;30.70;;;;;;484753;246;1040;-39
2022/03/30 03:35:52;;;;;;;;;;;21.60;30.80;;;;;;484224;246;1350;-39
2022/03/30 03:37:54;;;;;;;;;;;21.50;30.70;;;;;;484290;246;1220;-39
2022/03/30 03:39:55;;;;;;;;;;;21.60;30.80;;;;;;484297;246;1079;-39
2022/03/30 03:41:56;;;;;;;;;;;21.60;30.80;;;;;;484571;246;1314;-39
2022/03/30 03:43:58;;;;;;;;;;;21.60;30.90;;;;;;484307;246;2144;-39
2022/03/30 03:45:59;;;;;;;;;;;21.60;30.80;;;;;;484651;246;1397;-39
2022/03/30 03:48:00;;;;;;;;;;;21.60;30.80;;;;;;484222;246;1230;-39
2022/03/30 03:50:02;;;;;;;;;;;21.60;30.80;;;;;;484268;246;1133;-39
2022/03/30 03:52:03;;;;;;;;;;;21.60;30.70;;;;;;484163;246;1527;-39
2022/03/30 03:54:04;;;;;;;;;;;21.60;30.70;;;;;;484459;246;1095;-39
2022/03/30 03:56:06;;;;;;;;;;;21.60;30.70;;;;;;484463;246;1446;-39
2022/03/30 03:58:09;;;;;;;;;;;21.60;30.80;;;;;;484262;246;1160;-39
2022/03/30 04:00:08;;;;;;;;;;;21.60;30.70;;;;;;484655;246;2251;-39
2022/03/30 04:02:10;;;;;;;;;;;21.60;30.80;;;;;;484625;246;1335;-39
2022/03/30 04:04:11;;;;;;;;;;;21.60;30.80;;;;;;484547;246;2195;-39
2022/03/30 04:06:14;;;;;;;;;;;21.60;30.70;;;;;;484152;246;1001;-39
2022/03/30 04:08:16;;;;;;;;;;;21.60;30.80;;;;;;484264;246;1123;-39
2022/03/30 04:10:17;;;;;;;;;;;21.60;30.80;;;;;;484566;246;1056;-39
2022/03/30 04:12:18;;;;;;;;;;;21.50;30.80;;;;;;484107;246;2104;-39
2022/03/30 04:14:20;;;;;;;;;;;21.50;30.80;;;;;;484201;246;1237;-39
2022/03/30 04:16:21;;;;;;;;;;;21.60;30.80;;;;;;484150;246;1040;-39
2022/03/30 04:18:23;;;;;;;;;;;21.60;30.80;;;;;;484478;246;1031;-39
2022/03/30 04:20:23;;;;;;;;;;;21.60;30.80;;;;;;484292;246;1771;-39
2022/03/30 04:22:25;;;;;;;;;;;21.60;30.80;;;;;;484163;246;1086;-39
2022/03/30 04:24:28;;;;;;;;;;;21.60;30.80;;;;;;484590;246;2112;-39
2022/03/30 04:26:27;;;;;;;;;;;21.60;30.80;;;;;;484046;246;2369;-39
2022/03/30 04:28:29;;;;;;;;;;;21.60;30.80;;;;;;484403;245;1337;-39
2022/03/30 04:30:30;;;;;;;;;;;21.60;30.80;;;;;;484655;246;1064;-39
2022/03/30 04:32:32;;;;;;;;;;;21.60;30.90;;;;;;484157;246;1085;-39
2022/03/30 04:34:33;;;;;;;;;;;21.50;30.80;;;;;;484621;246;1093;-39
2022/03/30 04:36:34;;;;;;;;;;;21.60;30.90;;;;;;484562;246;1076;-39
2022/03/30 04:38:36;;;;;;;;;;;21.60;30.90;;;;;;484374;246;1064;-39
2022/03/30 04:40:37;;;;;;;;;;;21.60;30.80;;;;;;484367;246;1049;-39
2022/03/30 04:42:38;;;;;;;;;;;21.60;30.80;;;;;;484246;246;1055;-39
2022/03/30 04:44:39;;;;;;;;;;;21.60;30.90;;;;;;484154;246;2192;-39
2022/03/30 04:46:41;;;;;;;;;;;21.60;30.80;;;;;;484057;246;1035;-39
2022/03/30 04:48:42;;;;;;;;;;;21.60;30.90;;;;;;483970;246;1261;-39
2022/03/30 04:50:44;;;;;;;;;;;21.60;30.90;;;;;;483966;246;1232;-39
2022/03/30 04:52:45;;;;;;;;;;;21.60;30.90;;;;;;483889;246;1057;-39
2022/03/30 04:54:46;;;;;;;;;;;21.60;30.90;;;;;;484309;246;1111;-39
2022/03/30 04:56:51;;;;;;;;;;;21.60;30.90;;;;;;483968;246;1332;-39
2022/03/30 04:58:49;;;;;;;;;;;21.60;30.90;;;;;;484005;246;2051;-39
2022/03/30 05:00:50;;;;;;;;;;;21.60;30.90;;;;;;484188;246;1440;-39
2022/03/30 05:02:52;;;;;;;;;;;21.60;30.90;;;;;;484024;246;1490;-39
2022/03/30 05:04:53;;;;;;;;;;;21.60;30.90;;;;;;484297;246;2124;-39
2022/03/30 05:06:54;;;;;;;;;;;21.60;30.90;;;;;;484228;246;1293;-39
2022/03/30 05:08:56;;;;;;;;;;;21.60;30.90;;;;;;484098;246;1035;-39
2022/03/30 05:10:57;;;;;;;;;;;21.60;30.90;;;;;;484141;246;1344;-39
2022/03/30 05:13:00;;;;;;;;;;;21.60;30.80;;;;;;483919;246;1442;-39
2022/03/30 05:15:00;;;;;;;;;;;21.60;30.90;;;;;;483925;246;1262;-39
2022/03/30 05:17:01;;;;;;;;;;;21.60;30.90;;;;;;483886;246;1218;-39
2022/03/30 05:19:03;;;;;;;;;;;21.60;30.90;;;;;;484332;246;1094;-39
2022/03/30 05:21:05;;;;;;;;;;;21.60;30.90;;;;;;484212;246;1243;-39
2022/03/30 05:23:05;;;;;;;;;;;21.60;30.90;;;;;;484102;246;1597;-39
2022/03/30 05:25:07;;;;;;;;;;;21.60;30.90;;;;;;484493;246;2192;-39
2022/03/30 05:27:09;;;;;;;;;;;21.60;30.90;;;;;;484292;246;1215;-39
2022/03/30 05:29:10;;;;;;;;;;;21.60;30.90;;;;;;484089;246;1218;-39
2022/03/30 05:31:11;;;;;;;;;;;21.60;30.90;;;;;;483996;246;1209;-39
2022/03/30 05:33:12;;;;;;;;;;;21.60;30.90;;;;;;484065;246;1102;-39
2022/03/30 05:35:14;;;;;;;;;;;21.60;30.90;;;;;;484295;246;1047;-39
2022/03/30 05:37:15;;;;;;;;;;;21.60;30.90;;;;;;483930;246;1066;-39
2022/03/30 05:39:16;;;;;;;;;;;21.60;30.90;;;;;;484151;246;1020;-39
2022/03/30 05:41:18;;;;;;;;;;;21.60;30.90;;;;;;484332;246;1371;-39
2022/03/30 05:43:21;;;;;;;;;;;21.60;30.90;;;;;;483988;246;1056;-39
2022/03/30 05:45:20;;;;;;;;;;;21.60;30.90;;;;;;483802;246;2184;-39
2022/03/30 05:47:22;;;;;;;;;;;21.60;30.90;;;;;;483841;246;1244;-39
2022/03/30 05:49:24;;;;;;;;;;;21.60;30.90;;;;;;484001;246;1118;-39
2022/03/30 05:51:25;;;;;;;;;;;21.60;30.90;;;;;;483939;246;2287;-39
2022/03/30 05:53:26;;;;;;;;;;;21.60;30.90;;;;;;484412;246;1062;-39
2022/03/30 05:55:27;;;;;;;;;;;21.60;30.90;;;;;;483968;246;1189;-39
2022/03/30 05:57:28;;;;;;;;;;;21.60;30.90;;;;;;484261;246;1122;-39
2022/03/30 05:59:30;;;;;;;;;;;21.60;30.90;;;;;;484133;246;1190;-39
2022/03/30 06:01:31;;;;;;;;;;;21.60;30.90;;;;;;484089;246;1156;-39
2022/03/30 06:03:37;;;;;;;;;;;21.60;30.90;;;;;;484075;246;1098;-39
2022/03/30 06:05:34;;;;;;;;;;;21.60;30.90;;;;;;483756;246;2187;-39
2022/03/30 06:07:35;;;;;;;;;;;21.60;30.90;;;;;;483808;246;1241;-39
2022/03/30 06:09:37;;;;;;;;;;;21.70;30.90;;;;;;483876;246;1246;-39
2022/03/30 06:11:38;;;;;;;;;;;21.70;30.80;;;;;;483919;241;1333;-39
2022/03/30 06:13:39;;;;;;;;;;;21.70;30.80;;;;;;483916;246;1112;-39
2022/03/30 06:15:41;;;;;;;;;;;21.60;30.80;;;;;;483880;246;1161;-39
2022/03/30 06:17:42;;;;;;;;;;;21.70;30.90;;;;;;483870;246;1108;-39
2022/03/30 06:19:45;;;;;;;;;;;21.60;30.90;;;;;;484011;246;1162;-39
2022/03/30 06:21:45;;;;;;;;;;;21.60;30.90;;;;;;483641;241;2070;-39
2022/03/30 06:23:46;;;;;;;;;;;21.60;30.80;;;;;;484063;246;1084;-39
2022/03/30 06:25:47;;;;;;;;;;;21.60;30.80;;;;;;483665;246;2129;-39
2022/03/30 06:27:49;;;;;;;;;;;21.60;30.90;;;;;;483761;246;1212;-39
2022/03/30 06:29:50;;;;;;;;;;;21.70;30.80;;;;;;483836;246;1225;-39
2022/03/30 06:31:51;;;;;;;;;;;21.70;30.80;;;;;;483733;245;1324;-39
2022/03/30 06:33:53;;;;;;;;;;;21.60;30.80;;;;;;483886;246;1217;-39
2022/03/30 06:35:54;;;;;;;;;;;21.70;30.80;;;;;;483655;246;1066;-39
2022/03/30 06:37:55;;;;;;;;;;;21.70;30.80;;;;;;483731;246;1245;-39
2022/03/30 06:39:57;;;;;;;;;;;21.70;30.80;;;;;;483788;246;1071;-39
2022/03/30 06:41:58;;;;;;;;;;;21.70;30.80;;;;;;483719;246;1336;-39
2022/03/30 06:43:59;;;;;;;;;;;21.60;30.80;;;;;;483703;246;1110;-39
2022/03/30 06:46:01;;;;;;;;;;;21.60;30.80;;;;;;483702;246;2199;-39
2022/03/30 06:48:02;;;;;;;;;;;21.60;30.80;;;;;;483665;246;2391;-39
2022/03/30 06:50:03;;;;;;;;;;;21.70;30.80;;;;;;483755;246;1064;-39
2022/03/30 06:52:05;;;;;;;;;;;21.60;30.80;;;;;;483546;246;1214;-39
2022/03/30 06:54:06;;;;;;;;;;;21.60;30.80;;;;;;483740;246;1231;-39
2022/03/30 06:56:08;;;;;;;;;;;21.70;30.80;;;;;;483733;246;1317;-39
2022/03/30 06:58:09;;;;;;;;;;;21.70;30.80;;;;;;483699;246;1276;-39
2022/03/30 07:00:12;;;;;;;;;;;21.70;30.70;;;;;;483919;246;1177;-39
2022/03/30 07:02:12;;;;;;;;;;;21.70;30.70;;;;;;483483;246;2093;-39
2022/03/30 07:04:14;;;;;;;;;;;21.70;30.80;;;;;;483673;246;1222;-39
2022/03/30 07:06:15;;;;;;;;;;;21.70;30.80;;;;;;483747;246;2132;-39
2022/03/30 07:10:35;;;;;;;;;;;21.70;30.80;;;;;;483554;246;1154;-39
2022/03/30 07:12:37;;;;;;;;;;;21.70;30.70;;;;;;483531;246;1181;-39
2022/03/30 07:14:38;;;;;;;;;;;21.70;30.80;;;;;;483647;246;1217;-39
2022/03/30 07:16:39;;;;;;;;;;;21.70;30.90;;;;;;483771;246;1260;-39
2022/03/30 07:18:41;;;;;;;;;;;21.70;30.80;;;;;;483546;246;1085;-39
2022/03/30 07:20:42;;;;;;;;;;;21.70;30.80;;;;;;483510;246;1212;-39
2022/03/30 07:22:43;;;;;;;;;;;21.70;30.80;;;;;;483464;246;1242;-39
2022/03/30 07:24:45;;;;;;;;;;;21.60;30.80;;;;;;483502;246;1132;-39
2022/03/30 07:26:46;;;;;;;;;;;21.70;30.80;;;;;;483532;246;2148;-39
2022/03/30 07:28:47;;;;;;;;;;;21.70;30.80;;;;;;483346;246;1210;-39
2022/03/30 07:30:49;;;;;;;;;;;21.70;30.80;;;;;;483321;246;1311;-39
2022/03/30 07:32:51;;;;;;;;;;;21.70;30.80;;;;;;483345;246;1085;-39
2022/03/30 07:34:53;;;;;;;;;;;21.70;30.90;;;;;;483530;246;1068;-39
2022/03/30 07:36:54;;;;;;;;;;;21.70;30.90;;;;;;483669;246;2434;-39
2022/03/30 07:38:55;;;;;;;;;;;21.70;30.80;;;;;;483291;246;1117;-39
2022/03/30 07:41:00;;;;;;;;;;;21.70;30.80;;;;;;483143;246;1346;-39
2022/03/30 07:42:58;;;;;;;;;;;21.70;30.80;;;;;;483778;246;1658;-39
2022/03/30 07:44:59;;;;;;;;;;;21.70;30.80;;;;;;483673;246;2187;-39
2022/03/30 07:47:02;;;;;;;;;;;21.70;30.90;;;;;;483439;246;1335;-39
2022/03/30 07:49:02;;;;;;;;;;;21.70;30.80;;;;;;483437;246;1368;-39
2022/03/30 07:51:03;;;;;;;;;;;21.70;30.90;;;;;;483620;246;1294;-39
2022/03/30 07:53:07;;;;;;;;;;;21.70;30.90;;;;;;483354;246;1146;-39
2022/03/30 07:55:06;;;;;;;;;;;21.70;30.90;;;;;;483107;246;2512;-39
2022/03/30 07:57:07;;;;;;;;;;;21.70;30.90;;;;;;483535;246;1216;-39
2022/03/30 07:59:09;;;;;;;;;;;21.70;30.90;;;;;;483373;246;1115;-39
2022/03/30 08:01:11;;;;;;;;;;;21.70;30.90;;;;;;483261;246;1238;-39
2022/03/30 08:03:11;;;;;;;;;;;21.70;30.90;;;;;;483986;246;2227;-39
2022/03/30 08:05:13;;;;;;;;;;;21.80;30.90;;;;;;483216;246;2200;-39
2022/03/30 08:07:15;;;;;;;;;;;21.70;30.80;;;;;;483309;246;1541;-39
2022/03/30 08:09:16;;;;;;;;;;;21.70;30.90;;;;;;483274;246;1242;-39
2022/03/30 08:11:17;;;;;;;;;;;21.80;30.90;;;;;;483287;246;1189;-39
2022/03/30 08:13:18;;;;;;;;;;;21.70;30.90;;;;;;483713;246;1445;-39
2022/03/30 08:15:21;;;;;;;;;;;21.80;30.90;;;;;;483529;246;1229;-39
2022/03/30 08:17:21;;;;;;;;;;;21.70;30.90;;;;;;483566;246;2357;-39
2022/03/30 08:19:23;;;;;;;;;;;21.70;30.90;;;;;;483444;246;1130;-39
2022/03/30 08:23:59;;;;;;;;;;;21.80;31.00;;;;;;466955;254;1143;-39
2022/03/30 08:26:01;;;;;;;;;;;21.70;30.90;;;;;;471358;250;2200;-39
2022/03/30 08:28:02;;;;;;;;;;;21.70;31.00;;;;;;484792;245;1120;-39
2022/03/30 08:30:04;;;;;;;;;;;21.70;30.90;;;;;;480745;246;1247;-39
2022/03/30 08:32:05;;;;;;;;;;;21.70;31.00;;;;;;483223;246;1212;-39
2022/03/30 08:34:06;;;;;;;;;;;21.80;31.00;;;;;;483305;246;1077;-39
2022/03/30 08:36:08;;;;;;;;;;;21.80;31.00;;;;;;483179;246;1442;-39
2022/03/30 08:38:09;;;;;;;;;;;21.90;31.00;;;;;;483157;246;1175;-39
2022/03/30 08:40:10;;;;;;;;;;;21.80;30.90;;;;;;483183;246;1140;-39
2022/03/30 08:42:13;;;;;;;;;;;21.80;30.90;;;;;;483092;246;1231;-39
2022/03/30 08:44:16;;;;;;;;;;;21.80;31.00;;;;;;482840;246;1932;-39
2022/03/30 08:46:16;;;;;;;;;;;21.80;31.00;;;;;;483249;246;2316;-39
2022/03/30 08:48:17;;;;;;;;;;;21.90;31.00;;;;;;483046;246;1188;-39
2022/03/30 08:50:20;;;;;;;;;;;21.90;30.90;;;;;;483331;246;1163;-39
2022/03/30 08:52:21;;;;;;;;;;;21.90;30.90;;;;;;483340;246;1246;-39
2022/03/30 08:54:22;;;;;;;;;;;21.90;30.90;;;;;;483168;246;1079;-39
2022/03/30 08:56:24;;;;;;;;;;;21.90;30.90;;;;;;483190;246;1311;-39
2022/03/30 08:58:25;;;;;;;;;;;21.90;30.90;;;;;;483277;246;1053;-39
2022/03/30 09:00:26;;;;;;;;;;;21.90;30.90;;;;;;483226;246;1242;-39
2022/03/30 09:02:28;;;;;;;;;;;21.90;31.00;;;;;;483503;246;1219;-39
2022/03/30 09:04:29;;;;;;;;;;;21.90;30.90;;;;;;483630;246;1215;-39
2022/03/30 09:06:30;;;;;;;;;;;22.00;30.90;;;;;;483373;246;2192;-39
2022/03/30 09:08:32;;;;;;;;;;;22.00;30.80;;;;;;483458;246;1113;-39
2022/03/30 09:10:35;;;;;;;;;;;22.00;30.90;;;;;;483375;246;1090;-39
2022/03/30 09:12:35;;;;;;;;;;;22.00;31.00;;;;;;483647;246;1993;-39
2022/03/30 09:14:37;;;;;;;;;;;22.00;30.90;;;;;;483594;246;2157;-39
2022/03/30 09:16:37;;;;;;;;;;;21.90;30.90;;;;;;483262;246;1924;-39
2022/03/30 09:18:39;;;;;;;;;;;22.00;30.90;;;;;;482664;246;1227;-39
2022/03/30 09:20:40;;;;;;;;;;;22.00;30.90;;;;;;483279;246;1327;-39
2022/03/30 09:22:41;;;;;;;;;;;22.00;30.90;;;;;;483413;246;1222;-39
2022/03/30 09:24:42;;;;;;;;;;;22.00;30.80;;;;;;483277;246;1087;-39
2022/03/30 09:26:44;;;;;;;;;;;22.00;30.90;;;;;;483325;246;2208;-39
2022/03/30 09:28:45;;;;;;;;;;;22.00;30.90;;;;;;483357;246;1217;-39
2022/03/30 09:30:46;;;;;;;;;;;22.00;30.90;;;;;;483217;246;1313;-39
2022/03/30 09:32:49;;;;;;;;;;;22.00;31.00;;;;;;483329;246;1287;-39
2022/03/30 09:34:49;;;;;;;;;;;22.00;31.00;;;;;;483326;246;2144;-39
2022/03/30 09:36:51;;;;;;;;;;;22.00;31.00;;;;;;483285;246;1075;-39
2022/03/30 09:38:52;;;;;;;;;;;22.00;31.00;;;;;;483499;246;1223;-39
2022/03/30 09:40:53;;;;;;;;;;;22.00;31.00;;;;;;483408;246;1221;-39
2022/03/30 09:42:55;;;;;;;;;;;22.00;30.90;;;;;;483386;246;1134;-39
2022/03/30 09:44:56;;;;;;;;;;;22.00;31.00;;;;;;483491;246;1082;-39
2022/03/30 09:46:57;;;;;;;;;;;22.00;31.00;;;;;;483420;246;2184;-39
2022/03/30 09:48:59;;;;;;;;;;;22.00;31.00;;;;;;483455;246;1106;-39
2022/03/30 09:51:02;;;;;;;;;;;22.00;31.10;;;;;;483315;246;1221;-39
2022/03/30 09:53:02;;;;;;;;;;;22.00;31.00;;;;;;483336;246;2112;-39
2022/03/30 09:55:03;;;;;;;;;;;22.00;31.00;;;;;;483193;246;1099;-39
2022/03/30 09:57:04;;;;;;;;;;;22.00;31.00;;;;;;483096;246;1238;-39
2022/03/30 09:59:06;;;;;;;;;;;22.10;31.00;;;;;;483492;246;1317;-39
2022/03/30 10:01:08;;;;;;;;;;;22.10;31.10;;;;;;483280;246;1377;-39
2022/03/30 10:03:10;;;;;;;;;;;22.00;31.10;;;;;;483426;246;1259;-39
2022/03/30 10:05:10;;;;;;;;;;;22.00;31.10;;;;;;483369;246;2107;-39
2022/03/30 10:07:11;;;;;;;;;;;22.10;31.10;;;;;;483357;246;2193;-39
2022/03/30 10:09:13;;;;;;;;;;;22.00;31.10;;;;;;483464;246;1088;-39
2022/03/30 10:11:16;;;;;;;;;;;22.00;31.10;;;;;;483296;246;1173;-39
2022/03/30 10:13:17;;;;;;;;;;;22.00;31.10;;;;;;483330;246;1755;-39
2022/03/30 10:15:20;;;;;;;;;;;22.10;31.20;;;;;;483323;246;1245;-39
2022/03/30 10:17:20;;;;;;;;;;;22.10;31.20;;;;;;483537;246;2081;-39
2022/03/30 10:19:21;;;;;;;;;;;22.10;31.20;;;;;;483578;246;864;-39
2022/03/30 10:21:22;;;;;;;;;;;22.00;31.10;;;;;;483669;246;1101;-39
2022/03/30 10:23:24;;;;;;;;;;;22.00;31.20;;;;;;483394;246;1121;-39
2022/03/30 10:25:25;;;;;;;;;;;22.10;31.20;;;;;;483367;246;1238;-39
2022/03/30 10:27:28;;;;;;;;;;;22.00;31.10;;;;;;483404;246;2447;-39
2022/03/30 10:29:28;;;;;;;;;;;22.00;31.10;;;;;;483316;246;1355;-39
2022/03/30 10:31:30;;;;;;;;;;;22.10;31.20;;;;;;483370;246;1149;-39
2022/03/30 10:33:30;;;;;;;;;;;22.10;31.20;;;;;;483427;246;2299;-39
2022/03/30 10:35:32;;;;;;;;;;;22.10;31.20;;;;;;483595;246;1199;-39
2022/03/30 10:37:34;;;;;;;;;;;22.10;31.20;;;;;;483612;246;1600;-39
2022/03/30 10:39:35;;;;;;;;;;;22.00;31.20;;;;;;483573;246;1124;-39
2022/03/30 10:41:37;;;;;;;;;;;22.10;31.20;;;;;;483582;246;1146;-39
2022/03/30 10:43:38;;;;;;;;;;;22.10;31.20;;;;;;483613;246;1044;-39
2022/03/30 10:45:40;;;;;;;;;;;22.10;31.20;;;;;;483689;246;1093;-39
2022/03/30 10:47:41;;;;;;;;;;;22.10;31.20;;;;;;483797;246;2191;-39
2022/03/30 10:49:42;;;;;;;;;;;22.10;31.20;;;;;;483624;246;1072;-39
2022/03/30 10:51:43;;;;;;;;;;;22.10;31.30;;;;;;483253;246;1247;-39
2022/03/30 10:53:46;;;;;;;;;;;22.10;31.30;;;;;;483392;246;1245;-39
2022/03/30 10:55:46;;;;;;;;;;;22.10;31.20;;;;;;483396;246;2501;-39
2022/03/30 10:57:48;;;;;;;;;;;22.10;31.30;;;;;;483799;246;1228;-39
2022/03/30 10:59:49;;;;;;;;;;;22.10;31.40;;;;;;483728;246;1040;-39
2022/03/30 11:01:51;;;;;;;;;;;22.00;31.30;;;;;;483547;246;1147;-39
2022/03/30 11:03:52;;;;;;;;;;;22.10;31.30;;;;;;483532;246;2338;-39
2022/03/30 11:05:53;;;;;;;;;;;22.10;31.40;;;;;;483517;246;1246;-39
2022/03/30 11:07:55;;;;;;;;;;;22.20;31.30;;;;;;483394;246;2195;-39
2022/03/30 11:09:56;;;;;;;;;;;22.10;31.30;;;;;;483622;246;1028;-39
2022/03/30 11:11:57;;;;;;;;;;;22.10;31.40;;;;;;483482;246;1251;-39
2022/03/30 11:13:59;;;;;;;;;;;22.10;31.30;;;;;;483486;246;1072;-39
2022/03/30 11:16:00;;;;;;;;;;;22.10;31.30;;;;;;483551;246;1274;-39
2022/03/30 11:18:02;;;;;;;;;;;22.10;31.30;;;;;;483805;246;1159;-39
2022/03/30 11:20:03;;;;;;;;;;;22.10;31.30;;;;;;483476;246;1132;-39
2022/03/30 11:22:04;;;;;;;;;;;22.10;31.30;;;;;;483502;246;1383;-39
2022/03/30 11:24:05;;;;;;;;;;;22.10;31.30;;;;;;483600;246;1079;-39
2022/03/30 11:26:07;;;;;;;;;;;22.10;31.40;;;;;;483354;246;1311;-39
2022/03/30 11:28:08;;;;;;;;;;;22.10;31.30;;;;;;483538;246;2195;-39
2022/03/30 11:30:09;;;;;;;;;;;22.20;31.40;;;;;;483404;246;1324;-39
2022/03/30 11:32:11;;;;;;;;;;;22.20;31.40;;;;;;483203;246;1493;-39
2022/03/30 11:34:12;;;;;;;;;;;22.10;31.40;;;;;;483316;246;1223;-39
2022/03/30 11:36:14;;;;;;;;;;;22.10;31.50;;;;;;483361;246;1238;-39
2022/03/30 11:38:16;;;;;;;;;;;22.10;31.40;;;;;;483438;246;1117;-39
2022/03/30 11:40:17;;;;;;;;;;;22.10;31.50;;;;;;483463;246;1109;-39
2022/03/30 11:42:19;;;;;;;;;;;22.10;31.50;;;;;;483565;246;1311;-39
2022/03/30 11:46:40;;;;;;;;;;;22.10;31.60;;;;;;483354;246;2121;-38
2022/03/30 11:48:42;;;;;;;;;;;22.00;31.60;;;;;;483379;246;1235;-38
2022/03/30 11:50:42;;;;;;;;;;;22.00;31.60;;;;;;483200;246;2126;-38
2022/03/30 11:52:44;;;;;;;;;;;22.00;31.60;;;;;;483365;246;1536;-38
2022/03/30 11:54:45;;;;;;;;;;;22.10;31.60;;;;;;483547;246;1588;-38
2022/03/30 11:56:46;;;;;;;;;;;22.00;31.50;;;;;;483504;246;1343;-38
2022/03/30 11:58:50;;;;;;;;;;;22.00;31.60;;;;;;483629;246;1085;-38
2022/03/30 12:00:49;;;;;;;;;;;22.00;31.60;;;;;;483232;246;1577;-38
2022/03/30 12:02:50;;;;;;;;;;;22.00;31.70;;;;;;483402;246;1233;-38
2022/03/30 12:04:52;;;;;;;;;;;22.00;31.70;;;;;;467447;246;34512;-38
2022/03/30 12:06:53;;;;;;;;;;;21.90;31.80;;;;;;461038;258;2199;-38